Time;durP1;ratioP1;P1;durP2;ratioP2;P2;SDS_P1;SDS_P2;PMS_P1;PMS_P2;Temp;Humidity;BMP_temperature;BMP_pressure;BME280_temperature;BME280_humidity;BME280_pressure;Samples;Min_cycle;Max_cycle;Signal;HPM_P1;HPM_P2
2023/07/23 00:02:03;;;;;;;38.30;35.13;;;;;;;23.63;100.00;100690.38;5063494;28;20049;-77
2023/07/23 00:04:30;;;;;;;38.65;35.33;;;;;;;23.01;100.00;100703.13;5062328;28;20049;-77
2023/07/23 00:06:57;;;;;;;38.90;35.22;;;;;;;22.86;100.00;100715.69;5059537;28;20136;-77
2023/07/23 00:09:25;;;;;;;35.67;32.08;;;;;;;22.87;100.00;100735.44;5057364;28;20048;-77
2023/07/23 00:11:52;;;;;;;34.60;31.58;;;;;;;23.12;100.00;100718.16;5058954;28;20059;-77
2023/07/23 00:14:20;;;;;;;34.78;31.50;;;;;;;23.64;100.00;100726.41;5058475;28;20049;-77
2023/07/23 00:16:46;;;;;;;34.22;30.92;;;;;;;24.00;100.00;100724.78;5067946;28;20559;-77
2023/07/23 00:19:18;;;;;;;32.05;29.25;;;;;;;24.03;100.00;100733.47;5060861;28;20061;-77
2023/07/23 00:21:46;;;;;;;36.50;32.90;;;;;;;23.31;100.00;100737.16;5067226;28;20049;-77
2023/07/23 00:24:12;;;;;;;34.22;31.50;;;;;;;23.30;100.00;100736.34;5061960;28;20499;-78
2023/07/23 00:26:41;;;;;;;35.33;32.40;;;;;;;23.11;100.00;100742.81;5061016;28;20048;-78
2023/07/23 00:29:08;;;;;;;33.63;30.63;;;;;;;23.57;100.00;100751.19;5061310;28;20055;-78
2023/07/23 00:31:35;;;;;;;34.08;30.83;;;;;;;23.55;100.00;100767.72;5065153;28;20049;-78
2023/07/23 00:34:03;;;;;;;34.95;31.65;;;;;;;23.71;100.00;100778.38;5065343;28;20048;-77
2023/07/23 00:36:29;;;;;;;36.83;33.17;;;;;;;23.72;100.00;100790.84;5065792;28;20139;-77
2023/07/23 00:38:56;;;;;;;38.38;34.92;;;;;;;23.73;100.00;100789.75;5064046;28;20496;-77
2023/07/23 00:41:23;;;;;;;39.22;35.65;;;;;;;24.04;100.00;100794.75;5061864;28;20044;-77
2023/07/23 00:43:51;;;;;;;40.10;36.45;;;;;;;24.07;100.00;100803.09;5057411;28;20060;-77
2023/07/23 00:46:18;;;;;;;43.88;39.97;;;;;;;24.21;100.00;100812.09;5065773;28;20044;-77
2023/07/23 00:48:45;;;;;;;37.25;33.95;;;;;;;24.14;100.00;100811.66;5067673;28;20055;-77
2023/07/23 00:51:12;;;;;;;41.22;37.75;;;;;;;24.10;100.00;100817.97;5068289;28;20051;-77
2023/07/23 00:53:39;;;;;;;34.25;30.98;;;;;;;24.39;100.00;100820.53;5070312;28;20051;-77
2023/07/23 00:56:06;;;;;;;42.22;38.92;;;;;;;24.50;100.00;100834.75;5069466;28;20056;-77
2023/07/23 00:58:33;;;;;;;43.13;39.72;;;;;;;24.71;100.00;100844.16;5069955;28;20044;-77
2023/07/23 01:01:01;;;;;;;36.00;33.30;;;;;;;24.68;100.00;100848.28;5069308;28;20056;-77
2023/07/23 01:03:28;;;;;;;39.78;36.25;;;;;;;24.69;100.00;100859.97;5065011;28;20471;-77
2023/07/23 01:06:01;;;;;;;36.75;33.67;;;;;;;24.74;100.00;100854.44;5066914;28;20496;-77
2023/07/23 01:08:28;;;;;;;40.75;37.25;;;;;;;24.77;100.00;100851.13;5063240;28;20413;-77
2023/07/23 01:10:56;;;;;;;40.22;37.03;;;;;;;25.07;100.00;100852.50;5069270;28;20432;-77
2023/07/23 01:13:23;;;;;;;41.58;38.65;;;;;;;25.39;100.00;100859.00;5062700;28;20044;-77
2023/07/23 01:15:51;;;;;;;40.15;37.00;;;;;;;25.42;100.00;100852.13;5062781;28;20044;-77
2023/07/23 01:18:19;;;;;;;39.97;37.00;;;;;;;25.19;100.00;100873.78;5063400;28;20075;-77
2023/07/23 01:20:46;;;;;;;43.45;39.78;;;;;;;25.12;100.00;100895.09;5068806;28;20044;-77
2023/07/23 01:23:14;;;;;;;41.38;38.35;;;;;;;24.81;100.00;100908.38;5065644;28;20059;-77
2023/07/23 01:25:41;;;;;;;42.33;38.78;;;;;;;24.92;100.00;100936.97;5061305;28;20068;-77
2023/07/23 01:28:08;;;;;;;43.35;39.97;;;;;;;25.36;100.00;100979.22;5062351;28;20047;-79
2023/07/23 01:30:35;;;;;;;39.40;36.47;;;;;;;26.84;100.00;101013.53;5067404;28;20049;-78
2023/07/23 01:33:03;;;;;;;43.78;40.85;;;;;;;27.81;100.00;101011.16;5057900;28;20041;-78
2023/07/23 01:35:30;;;;;;;37.72;35.05;;;;;;;26.64;100.00;101039.34;5059461;28;20059;-78
2023/07/23 01:37:58;;;;;;;46.45;42.78;;;;;;;27.99;100.00;101047.47;5057594;28;20056;-78
2023/07/23 01:40:29;;;;;;;49.33;45.08;;;;;;;26.99;100.00;101075.06;5066046;28;20041;-78
2023/07/23 01:42:58;;;;;;;49.50;44.80;;;;;;;24.29;100.00;101089.34;5062623;28;20052;-78
2023/07/23 01:45:28;;;;;;;47.67;37.70;;;;;;;24.10;100.00;101100.13;5060978;28;20425;-77
2023/07/23 01:47:55;;;;;;;44.50;39.42;;;;;;;24.57;100.00;101109.38;5059164;28;20074;-77
2023/07/23 01:50:22;;;;;;;48.17;43.47;;;;;;;24.49;100.00;101101.91;5064030;28;20500;-77
2023/07/23 01:52:49;;;;;;;52.53;42.65;;;;;;;24.21;100.00;101080.75;5067404;28;20044;-77
2023/07/23 01:55:16;;;;;;;55.25;49.15;;;;;;;23.10;100.00;101058.94;5065821;28;20041;-77
2023/07/23 01:57:44;;;;;;;56.05;48.25;;;;;;;22.83;100.00;101041.19;5067099;28;20063;-74
2023/07/23 02:00:12;;;;;;;52.60;45.20;;;;;;;22.76;100.00;101070.50;5064715;28;20110;-77
2023/07/23 02:02:39;;;;;;;61.08;52.70;;;;;;;22.74;100.00;101083.47;5064476;28;20056;-77
2023/07/23 02:05:06;;;;;;;55.20;45.03;;;;;;;22.22;100.00;101056.91;5058634;28;20488;-75
2023/07/23 02:07:36;;;;;;;52.20;44.67;;;;;;;22.54;100.00;101032.97;5064805;28;20052;-75
2023/07/23 02:10:04;;;;;;;55.97;49.10;;;;;;;22.82;100.00;101031.47;5061274;28;20064;-77
2023/07/23 02:12:30;;;;;;;52.22;46.58;;;;;;;22.55;100.00;101047.31;5067278;28;20497;-77
2023/07/23 02:14:59;;;;;;;65.15;51.17;;;;;;;22.45;100.00;101072.53;5063054;28;20520;-77
2023/07/23 02:17:26;;;;;;;64.15;54.72;;;;;;;22.38;100.00;101075.50;5064417;28;20052;-77
2023/07/23 02:19:53;;;;;;;62.95;52.38;;;;;;;22.69;100.00;101078.09;5060313;28;20059;-75
2023/07/23 02:22:20;;;;;;;56.35;50.15;;;;;;;22.43;100.00;101095.53;5066041;28;20044;-75
2023/07/23 02:24:47;;;;;;;54.58;48.00;;;;;;;22.52;100.00;101121.75;5069834;28;20049;-75
2023/07/23 02:27:14;;;;;;;48.17;42.88;;;;;;;22.67;100.00;101123.59;5071149;28;20516;-75
2023/07/23 02:29:41;;;;;;;48.10;41.85;;;;;;;22.91;100.00;101110.22;5069948;28;20076;-76
2023/07/23 02:32:11;;;;;;;46.35;41.45;;;;;;;22.64;100.00;101078.13;5069916;28;20048;-75
2023/07/23 02:34:38;;;;;;;48.92;43.42;;;;;;;22.69;100.00;101052.91;5070431;28;20131;-75
2023/07/23 02:37:05;;;;;;;49.92;40.85;;;;;;;22.09;100.00;101036.66;5069540;28;20059;-75
2023/07/23 02:39:32;;;;;;;49.30;43.97;;;;;;;21.94;100.00;101041.00;5067164;28;20040;-75
2023/07/23 02:41:59;;;;;;;52.45;46.85;;;;;;;22.37;100.00;101022.50;5069438;28;20076;-76
2023/07/23 02:44:26;;;;;;;52.15;46.85;;;;;;;22.63;100.00;100982.59;5068513;28;20497;-76
2023/07/23 02:46:53;;;;;;;56.67;50.95;;;;;;;22.36;100.00;100966.75;5069916;28;20052;-77
2023/07/23 02:49:22;;;;;;;52.95;47.40;;;;;;;22.60;100.00;100933.59;5069269;28;20048;-77
2023/07/23 02:51:49;;;;;;;53.70;48.20;;;;;;;22.55;100.00;100898.47;5069801;28;20428;-75
2023/07/23 02:54:16;;;;;;;55.67;49.78;;;;;;;22.40;100.00;100897.47;5069629;28;20045;-76
2023/07/23 02:56:42;;;;;;;54.58;48.72;;;;;;;21.97;100.00;100917.97;5069246;28;20048;-75
2023/07/23 02:59:09;;;;;;;53.45;45.90;;;;;;;22.06;100.00;100929.81;5069343;28;20059;-76
2023/07/23 03:01:36;;;;;;;52.92;47.40;;;;;;;22.04;100.00;100926.56;5069371;28;20045;-76
2023/07/23 03:04:03;;;;;;;50.75;43.78;;;;;;;22.11;100.00;100931.69;5070086;28;20558;-76
2023/07/23 03:06:32;;;;;;;55.42;47.53;;;;;;;21.80;100.00;100953.44;5069077;28;20044;-75
2023/07/23 03:08:58;;;;;;;52.47;45.33;;;;;;;21.66;100.00;100965.91;5067950;28;20056;-78
2023/07/23 03:11:25;;;;;;;49.15;43.90;;;;;;;21.67;100.00;100979.16;5066889;28;20056;-77
2023/07/23 03:13:52;;;;;;;47.72;42.55;;;;;;;21.69;100.00;100970.75;5069369;28;20045;-77
2023/07/23 03:16:19;;;;;;;43.65;38.85;;;;;;;21.77;100.00;100970.19;5069732;28;20044;-78
2023/07/23 03:18:46;;;;;;;46.30;40.15;;;;;;;21.30;100.00;100984.00;5069629;28;20432;-76
2023/07/23 03:21:13;;;;;;;47.58;40.25;;;;;;;21.56;100.00;100987.53;5069415;28;20512;-76
2023/07/23 03:23:41;;;;;;;47.60;39.65;;;;;;;21.85;100.00;100985.88;5069035;28;20057;-76
2023/07/23 03:26:08;;;;;;;43.10;37.03;;;;;;;21.87;100.00;100980.16;5069374;28;20059;-76
2023/07/23 03:28:35;;;;;;;42.97;38.30;;;;;;;21.58;100.00;100974.59;5069531;28;20047;-76
2023/07/23 03:31:02;;;;;;;46.97;42.08;;;;;;;21.70;100.00;100975.91;5069435;28;20041;-78
2023/07/23 03:33:29;;;;;;;45.60;38.55;;;;;;;21.82;100.00;100967.50;5069730;28;20058;-77
2023/07/23 03:35:55;;;;;;;48.53;39.45;;;;;;;21.27;100.00;100986.19;5069298;28;20104;-78
2023/07/23 03:38:22;;;;;;;48.83;39.63;;;;;;;21.77;100.00;100974.81;5069762;28;20447;-76
2023/07/23 03:40:51;;;;;;;44.38;39.03;;;;;;;22.23;100.00;100977.38;5067771;28;20051;-78
2023/07/23 03:43:17;;;;;;;44.83;39.92;;;;;;;21.99;100.00;100988.78;5069005;28;20052;-78
2023/07/23 03:45:44;;;;;;;46.75;38.42;;;;;;;21.80;100.00;100985.88;5069143;28;20048;-77
2023/07/23 03:48:11;;;;;;;43.88;38.42;;;;;;;21.78;100.00;100976.41;5069243;28;20048;-78
2023/07/23 03:50:38;;;;;;;43.13;37.95;;;;;;;21.66;100.00;100974.00;5069195;28;20280;-78
2023/07/23 03:53:05;;;;;;;48.50;39.35;;;;;;;22.10;100.00;100976.84;5069036;28;20511;-78
2023/07/23 03:55:33;;;;;;;42.53;38.00;;;;;;;22.15;100.00;100986.84;5069278;28;20075;-77
2023/07/23 03:58:02;;;;;;;48.72;41.28;;;;;;;22.35;100.00;100967.84;5068568;28;20424;-78
2023/07/23 04:00:28;;;;;;;42.60;38.03;;;;;;;22.09;100.00;100986.06;5069479;28;20516;-77
2023/07/23 04:02:55;;;;;;;43.08;38.53;;;;;;;22.14;100.00;100994.13;5071820;28;20484;-78
2023/07/23 04:05:22;;;;;;;46.38;41.58;;;;;;;22.14;100.00;100991.44;5072902;28;20053;-78
2023/07/23 04:07:49;;;;;;;44.08;38.90;;;;;;;22.15;100.00;100982.25;5072979;28;20044;-77
2023/07/23 04:10:16;;;;;;;44.72;40.00;;;;;;;22.38;100.00;100988.91;5067281;28;20133;-77
2023/07/23 04:12:43;;;;;;;42.95;37.15;;;;;;;22.47;100.00;100993.75;5056932;28;20060;-78
2023/07/23 04:15:11;;;;;;;42.05;37.63;;;;;;;22.36;100.00;101007.34;5072515;28;20048;-78
2023/07/23 04:17:38;;;;;;;41.97;37.13;;;;;;;22.66;100.00;100975.78;5072454;28;20113;-78
2023/07/23 04:20:06;;;;;;;40.55;36.25;;;;;;;22.69;100.00;100993.34;5072152;28;20048;-76
2023/07/23 04:22:36;;;;;;;39.83;35.72;;;;;;;22.86;100.00;100985.66;5070663;28;20432;-78
2023/07/23 04:25:03;;;;;;;37.83;33.97;;;;;;;22.47;100.00;100977.53;5072225;28;20428;-77
2023/07/23 04:27:30;;;;;;;42.60;38.50;;;;;;;22.73;100.00;100984.41;5071617;28;20500;-77
2023/07/23 04:29:57;;;;;;;41.90;37.58;;;;;;;22.67;100.00;100992.84;5072368;28;20048;-77
2023/07/23 04:32:25;;;;;;;42.53;38.00;;;;;;;22.78;100.00;100992.47;5072314;28;20059;-78
2023/07/23 04:34:52;;;;;;;43.72;39.20;;;;;;;22.72;100.00;100999.00;5072939;28;20451;-78
2023/07/23 04:37:18;;;;;;;38.78;34.65;;;;;;;22.95;100.00;100997.56;5072265;28;20444;-78
2023/07/23 04:39:48;;;;;;;37.33;33.15;;;;;;;23.03;100.00;101007.78;5072264;28;20068;-78
2023/07/23 04:42:15;;;;;;;37.05;33.10;;;;;;;22.84;100.00;101025.75;5071918;28;20041;-76
2023/07/23 04:44:42;;;;;;;37.85;32.47;;;;;;;22.97;100.00;101029.78;5068210;28;20445;-76
2023/07/23 04:47:09;;;;;;;37.85;33.53;;;;;;;23.23;100.00;101033.91;5072038;28;20056;-75
2023/07/23 04:49:40;;;;;;;38.28;34.67;;;;;;;23.06;100.00;101030.81;5072480;28;20048;-75
2023/07/23 04:52:07;;;;;;;39.25;33.83;;;;;;;23.03;100.00;101025.94;5071824;28;20053;-76
2023/07/23 04:54:37;;;;;;;35.67;32.03;;;;;;;22.94;100.00;101030.31;5071772;28;20459;-76
2023/07/23 04:57:04;;;;;;;38.53;34.40;;;;;;;23.19;100.00;101040.19;5072628;28;20068;-77
2023/07/23 04:59:30;;;;;;;36.13;31.75;;;;;;;23.43;100.00;101041.06;5072376;28;20455;-77
2023/07/23 05:01:57;;;;;;;36.15;32.55;;;;;;;23.05;100.00;101042.72;5071550;28;20055;-76
2023/07/23 05:04:24;;;;;;;38.33;34.42;;;;;;;23.37;100.00;101041.41;5072481;28;20074;-76
2023/07/23 05:06:53;;;;;;;35.47;32.15;;;;;;;23.86;100.00;101037.72;5071478;28;20580;-76
2023/07/23 05:09:20;;;;;;;33.15;29.90;;;;;;;25.57;100.00;101029.41;5072129;28;20059;-80
2023/07/23 05:11:48;;;;;;;30.40;27.55;;;;;;;25.74;100.00;101026.09;5071704;28;20044;-76
2023/07/23 05:14:16;;;;;;;32.10;29.00;;;;;;;24.65;100.00;101024.56;5071100;28;20044;-77
2023/07/23 05:16:43;;;;;;;33.25;29.30;;;;;;;23.34;100.00;101023.81;5057074;28;20037;-76
2023/07/23 05:19:11;;;;;;;36.40;32.75;;;;;;;22.96;100.00;101044.41;5061583;28;20047;-76
2023/07/23 05:21:39;;;;;;;33.20;29.95;;;;;;;24.17;100.00;101041.69;5070865;28;20080;-76
2023/07/23 05:24:07;;;;;;;34.13;30.52;;;;;;;24.66;100.00;101045.19;5071410;28;20061;-76
2023/07/23 05:26:40;;;;;;;34.25;30.83;;;;;;;24.28;100.00;101047.03;5071418;28;20053;-77
2023/07/23 05:29:06;;;;;;;31.55;28.58;;;;;;;24.83;100.00;101045.50;5071164;28;20053;-76
2023/07/23 05:31:36;;;;;;;33.22;29.70;;;;;;;25.13;100.00;101046.97;5068214;28;20055;-76
2023/07/23 05:34:05;;;;;;;31.45;28.33;;;;;;;26.11;100.00;101037.13;5062913;28;20040;-77
2023/07/23 05:36:32;;;;;;;31.15;27.38;;;;;;;26.41;100.00;101047.41;5066424;28;20463;-76
2023/07/23 05:39:05;;;;;;;32.60;29.15;;;;;;;25.65;100.00;101043.41;5064380;28;20048;-77
2023/07/23 05:41:36;;;;;;;34.80;31.00;;;;;;;23.65;100.00;101059.56;5068364;28;20040;-76
2023/07/23 05:44:03;;;;;;;32.92;29.60;;;;;;;24.82;100.00;101060.19;5068127;28;20493;-76
2023/07/23 05:46:30;;;;;;;32.55;29.10;;;;;;;24.49;100.00;101059.28;5065694;28;20040;-77
2023/07/23 05:48:57;;;;;;;34.08;27.52;;;;;;;24.23;100.00;101061.44;5064622;28;20045;-76
2023/07/23 05:51:27;;;;;;;37.08;33.15;;;;;;;23.47;100.00;101063.00;5061875;28;20049;-76
2023/07/23 05:53:54;;;;;;;32.65;29.33;;;;;;;24.54;100.00;101050.25;5060130;28;20044;-76
2023/07/23 05:56:21;;;;;;;32.85;29.42;;;;;;;25.30;100.00;101045.66;5057998;28;20483;-76
2023/07/23 05:58:49;;;;;;;33.60;28.35;;;;;;;24.00;100.00;101055.75;5060047;28;20059;-76
2023/07/23 06:01:27;;;;;;;35.17;31.60;;;;;;;23.83;100.00;101060.00;5063431;28;20048;-76
2023/07/23 06:03:54;;;;;;;34.05;30.35;;;;;;;25.34;100.00;101054.81;5058972;28;20049;-76
2023/07/23 06:06:21;;;;;;;28.45;25.48;;;;;;;25.77;100.00;101046.47;5057585;28;20048;-76
2023/07/23 06:08:48;;;;;;;29.13;26.33;;;;;;;25.63;100.00;101057.31;5062828;28;20074;-77
2023/07/23 06:11:18;;;;;;;29.73;26.85;;;;;;;24.30;100.00;101055.66;5061441;28;20495;-76
2023/07/23 06:13:55;;;;;;;29.98;27.08;;;;;;;24.25;100.00;101061.16;5062250;28;20134;-76
2023/07/23 06:16:21;;;;;;;30.58;27.60;;;;;;;23.99;100.00;101069.56;5062261;28;20056;-76
2023/07/23 06:18:48;;;;;;;29.48;26.77;;;;;;;25.07;100.00;101072.59;5061545;28;20045;-77
2023/07/23 06:21:15;;;;;;;29.73;26.92;;;;;;;24.61;100.00;101064.28;5060040;28;20048;-76
2023/07/23 06:23:42;;;;;;;30.08;27.27;;;;;;;24.39;100.00;101068.31;5059816;28;20044;-76
2023/07/23 06:26:12;;;;;;;31.80;28.45;;;;;;;24.14;100.00;101080.25;5064877;28;20052;-75
2023/07/23 06:28:39;;;;;;;31.50;28.73;;;;;;;25.17;100.00;101076.28;5059149;28;20044;-76
2023/07/23 06:31:07;;;;;;;31.58;28.38;;;;;;;24.02;100.00;101085.28;5058440;28;20048;-76
2023/07/23 06:33:34;;;;;;;30.88;27.75;;;;;;;24.16;100.00;101082.69;5053750;28;20091;-76
2023/07/23 06:36:02;;;;;;;32.88;29.42;;;;;;;24.39;100.00;101081.09;5059363;28;20532;-76
2023/07/23 06:38:29;;;;;;;34.08;25.70;;;;;;;25.92;100.00;101084.28;5057635;28;20427;-79
2023/07/23 06:40:57;;;;;;;29.63;26.70;;;;;;;25.66;100.00;101078.50;5059835;28;20079;-77
2023/07/23 06:43:24;;;;;;;29.77;26.75;;;;;;;25.27;100.00;101076.16;5069548;28;20135;-77
2023/07/23 06:45:52;;;;;;;28.30;25.70;;;;;;;24.92;100.00;101079.03;5069346;28;20456;-77
2023/07/23 06:48:23;;;;;;;30.25;27.50;;;;;;;25.30;100.00;101084.50;5069487;28;20045;-76
2023/07/23 06:50:50;;;;;;;29.45;26.55;;;;;;;24.35;100.00;101093.59;5069470;28;20076;-76
2023/07/23 06:53:18;;;;;;;28.13;25.27;;;;;;;25.39;100.00;101091.97;5069369;28;20052;-76
2023/07/23 06:55:59;;;;;;;26.90;24.50;;;;;;;24.29;100.00;101083.91;5068233;28;20049;-76
2023/07/23 06:58:28;;;;;;;28.88;25.95;;;;;;;24.09;100.00;101087.69;5067922;28;20048;-77
2023/07/23 07:00:55;;;;;;;30.40;27.70;;;;;;;23.94;100.00;101094.06;5061911;28;20051;-76
2023/07/23 07:03:23;;;;;;;30.08;27.30;;;;;;;23.77;100.00;101084.44;5055322;28;20420;-76
2023/07/23 07:05:50;;;;;;;30.25;27.55;;;;;;;25.09;100.00;101075.03;5062333;28;20045;-76
2023/07/23 07:08:17;;;;;;;31.48;28.25;;;;;;;24.98;100.00;101076.28;5055849;28;20055;-76
2023/07/23 07:10:44;;;;;;;26.20;23.67;;;;;;;25.36;100.00;101061.56;5060787;28;20548;-76
2023/07/23 07:13:10;;;;;;;27.33;24.95;;;;;;;26.33;100.00;101072.63;5056438;28;20057;-76
2023/07/23 07:15:37;;;;;;;27.23;24.27;;;;;;;27.09;100.00;101075.63;5067011;28;20508;-76
2023/07/23 07:18:04;;;;;;;25.02;22.67;;;;;;;27.64;100.00;101077.31;5060673;28;20415;-77
2023/07/23 07:20:32;;;;;;;27.40;24.63;;;;;;;25.26;100.00;101083.47;5069472;28;20515;-76
2023/07/23 07:22:59;;;;;;;25.30;22.90;;;;;;;26.75;100.00;101087.03;5068825;28;20051;-76
2023/07/23 07:25:26;;;;;;;25.85;23.45;;;;;;;25.14;100.00;101091.25;5069454;28;20059;-76
2023/07/23 07:27:53;;;;;;;26.67;24.15;;;;;;;25.24;100.00;101093.84;5069071;28;20053;-76
2023/07/23 07:30:20;;;;;;;25.63;22.73;;;;;;;25.84;100.00;101093.16;5069505;28;20494;-76
2023/07/23 07:32:46;;;;;;;22.98;20.65;;;;;;;26.37;100.00;101087.25;5069397;28;20439;-77
2023/07/23 07:35:13;;;;;;;22.98;20.85;;;;;;;25.65;100.00;101086.94;5071062;28;20056;-76
2023/07/23 07:37:41;;;;;;;25.13;22.73;;;;;;;26.01;100.00;101093.38;5073613;28;20054;-77
2023/07/23 07:40:10;;;;;;;25.90;23.42;;;;;;;26.50;100.00;101094.63;5073069;28;20049;-76
2023/07/23 07:42:37;;;;;;;24.83;22.63;;;;;;;26.50;100.00;101091.88;5070024;28;20055;-76
2023/07/23 07:45:05;;;;;;;25.05;22.45;;;;;;;28.01;100.00;101084.28;5069896;28;20052;-77
2023/07/23 07:47:32;;;;;;;24.52;22.20;;;;;;;27.91;100.00;101081.81;5069693;28;20139;-77
2023/07/23 07:49:58;;;;;;;25.15;22.65;;;;;;;27.22;100.00;101093.06;5063815;28;20489;-77
2023/07/23 07:52:25;;;;;;;26.90;24.13;;;;;;;26.88;100.00;101099.81;5065767;28;20641;-77
2023/07/23 07:54:53;;;;;;;25.40;23.17;;;;;;;27.40;100.00;101099.47;5064134;28;20496;-77
2023/07/23 07:57:21;;;;;;;24.92;22.73;;;;;;;27.97;100.00;101096.94;5062393;28;20045;-77
2023/07/23 07:59:48;;;;;;;25.95;23.60;;;;;;;27.61;100.00;101097.03;5065415;28;20045;-77
2023/07/23 08:02:16;;;;;;;25.98;23.58;;;;;;;28.45;100.00;101090.72;5067205;28;20063;-77
2023/07/23 08:04:43;;;;;;;25.50;23.15;;;;;;;28.37;100.00;101107.06;5063188;28;20156;-77
2023/07/23 08:07:13;;;;;;;26.15;23.75;;;;;;;28.00;100.00;101099.03;5068876;28;20048;-77
2023/07/23 08:09:44;;;;;;;25.08;22.80;;;;;;;28.41;100.00;101103.38;5068592;28;20077;-77
2023/07/23 08:12:13;;;;;;;26.07;23.50;;;;;;;27.76;100.00;101093.13;5068383;28;20049;-77
2023/07/23 08:14:40;;;;;;;26.40;23.92;;;;;;;27.33;100.00;101104.56;5064515;28;20503;-77
2023/07/23 08:17:08;;;;;;;27.42;24.83;;;;;;;27.71;100.00;101115.88;5069726;28;20571;-77
2023/07/23 08:19:38;;;;;;;26.50;24.10;;;;;;;28.13;100.00;101091.88;5065868;28;20062;-77
2023/07/23 08:22:09;;;;;;;25.63;23.27;;;;;;;29.13;100.00;101088.41;5071210;28;20458;-77
2023/07/23 08:24:36;;;;;;;25.92;23.45;;;;;;;27.56;100.00;101097.16;5072391;28;20048;-77
2023/07/23 08:27:07;;;;;;;24.77;22.45;;;;;;;28.03;100.00;101097.63;5072078;28;20044;-77
2023/07/23 08:29:40;;;;;;;24.80;22.30;;;;;;;29.02;100.00;101100.81;5072356;28;20044;-77
2023/07/23 08:32:10;;;;;;;26.55;23.92;;;;;;;30.21;100.00;101093.03;5070938;28;20049;-77
2023/07/23 08:34:38;;;;;;;25.25;23.05;;;;;;;29.49;100.00;101094.66;5072335;28;20056;-77
2023/07/23 08:37:08;;;;;;;29.52;26.52;;;;;;;29.02;100.00;101097.25;5073079;28;20051;-77
2023/07/23 08:39:35;;;;;;;30.27;27.17;;;;;;;28.57;100.00;101100.25;5073244;28;20052;-77
2023/07/23 08:42:19;;;;;;;29.85;27.00;;;;;;;28.17;100.00;101101.06;5060155;28;20056;-77
2023/07/23 08:45:18;;;;;;;27.98;25.25;;;;;;;28.08;100.00;101101.03;5071980;28;20504;-77
2023/07/23 08:47:47;;;;;;;32.85;29.77;;;;;;;28.76;100.00;101107.00;5067829;28;20055;-77
2023/07/23 08:50:14;;;;;;;27.80;25.30;;;;;;;29.17;100.00;101105.78;5072223;28;20440;-76
2023/07/23 08:52:42;;;;;;;42.28;37.47;;;;;;;29.15;100.00;101099.03;5059927;28;20056;-81
2023/07/23 08:55:09;;;;;;;76.53;57.08;;;;;;;29.27;100.00;101101.94;5060861;28;20040;-78
2023/07/23 08:57:36;;;;;;;37.35;33.42;;;;;;;28.51;100.00;101099.59;5069051;28;20051;-78
2023/07/23 09:00:07;;;;;;;113.82;75.97;;;;;;;28.33;100.00;101090.50;5066127;28;20052;-78
2023/07/23 09:02:43;;;;;;;49.58;42.60;;;;;;;28.76;100.00;101107.00;5061799;28;20041;-78
2023/07/23 09:05:10;;;;;;;48.33;43.47;;;;;;;28.38;100.00;101103.19;5070110;28;20147;-78
2023/07/23 09:07:37;;;;;;;30.17;27.58;;;;;;;29.29;100.00;101104.31;5063597;28;20425;-78
2023/07/23 09:10:04;;;;;;;30.63;27.80;;;;;;;29.54;100.00;101095.28;5065979;28;20052;-78
2023/07/23 09:12:31;;;;;;;124.85;83.55;;;;;;;29.64;100.00;101107.84;5061439;28;20515;-78
2023/07/23 09:15:06;;;;;;;38.20;34.55;;;;;;;29.09;100.00;101106.59;5066696;28;20044;-78
2023/07/23 09:17:33;;;;;;;33.65;30.65;;;;;;;29.87;100.00;101097.50;5064165;28;20048;-78
2023/07/23 09:20:00;;;;;;;37.85;34.08;;;;;;;28.81;100.00;101100.59;5063653;28;20127;-78
2023/07/23 09:22:31;;;;;;;38.38;34.60;;;;;;;28.95;100.00;101106.69;5060543;28;20124;-78
2023/07/23 09:25:00;;;;;;;39.88;35.47;;;;;;;29.15;100.00;101101.78;5058733;28;20059;-78
2023/07/23 09:27:36;;;;;;;36.55;33.05;;;;;;;29.21;100.00;101112.22;5070315;28;20052;-77
2023/07/23 09:30:03;;;;;;;28.38;25.88;;;;;;;28.67;100.00;101113.59;5071319;28;20500;-78
2023/07/23 09:32:31;;;;;;;29.00;26.35;;;;;;;30.11;100.00;101108.69;5070526;28;20049;-77
2023/07/23 09:35:00;;;;;;;28.30;25.95;;;;;;;29.62;100.00;101112.84;5071326;28;20060;-78
2023/07/23 09:37:28;;;;;;;28.20;25.83;;;;;;;28.41;100.00;101111.59;5070431;28;20068;-78
2023/07/23 09:39:56;;;;;;;27.40;25.20;;;;;;;29.48;100.00;101104.00;5071132;28;20508;-78
2023/07/23 09:42:24;;;;;;;26.27;23.88;;;;;;;30.27;100.00;101108.16;5070857;28;20052;-78
2023/07/23 09:44:51;;;;;;;28.48;26.00;;;;;;;30.20;100.00;101105.06;5070947;28;20056;-80
2023/07/23 09:47:25;;;;;;;28.33;25.77;;;;;;;29.95;100.00;101104.06;5071052;28;20427;-80
2023/07/23 09:49:53;;;;;;;27.17;24.75;;;;;;;29.36;100.00;101102.72;5071040;28;20052;-80
2023/07/23 09:52:23;;;;;;;29.38;26.77;;;;;;;30.66;100.00;101104.22;5070708;28;20059;-79
2023/07/23 09:54:52;;;;;;;28.40;25.98;;;;;;;31.35;100.00;101099.34;5066932;28;20064;-81
2023/07/23 09:57:20;;;;;;;29.58;27.02;;;;;;;30.44;100.00;101099.03;5060128;28;20041;-80
2023/07/23 09:59:48;;;;;;;25.77;23.35;;;;;;;30.47;100.00;101098.34;5059931;28;20041;-80
2023/07/23 10:02:16;;;;;;;28.38;26.08;;;;;;;29.77;100.00;101097.84;5059915;28;20037;-81
2023/07/23 10:04:44;;;;;;;26.80;24.63;;;;;;;29.54;100.00;101100.75;5067060;28;20040;-80
2023/07/23 10:07:13;;;;;;;27.45;25.25;;;;;;;30.76;100.00;101103.00;5070029;28;20059;-80
2023/07/23 10:09:40;;;;;;;26.38;24.15;;;;;;;30.26;100.00;101101.03;5070108;28;20060;-79
2023/07/23 10:12:07;;;;;;;26.73;24.38;;;;;;;30.22;100.00;101102.84;5070236;28;20044;-80
2023/07/23 10:14:34;;;;;;;26.92;24.52;;;;;;;30.49;100.00;101094.16;5070244;28;20092;-80
2023/07/23 10:17:03;;;;;;;31.15;28.55;;;;;;;30.02;100.00;101096.94;5070885;28;20052;-80
2023/07/23 10:19:30;;;;;;;28.58;26.27;;;;;;;30.11;100.00;101086.75;5070123;28;20048;-79
2023/07/23 10:21:57;;;;;;;30.60;28.13;;;;;;;30.97;100.00;101084.66;5070291;28;20435;-80
2023/07/23 10:24:37;;;;;;;29.80;27.40;;;;;;;29.97;100.00;101088.91;5069998;28;20045;-80
2023/07/23 10:27:11;;;;;;;27.15;24.55;;;;;;;30.38;100.00;101083.91;5067383;28;20052;-80
2023/07/23 10:29:38;;;;;;;28.88;26.40;;;;;;;30.49;100.00;101074.97;5069314;28;20048;-80
2023/07/23 10:32:26;;;;;;;28.17;25.95;;;;;;;30.39;100.00;101075.38;5070484;28;20059;-80
2023/07/23 10:34:54;;;;;;;31.55;29.00;;;;;;;30.68;100.00;101070.97;5060621;28;20048;-81
2023/07/23 10:37:26;;;;;;;30.05;27.65;;;;;;;31.69;100.00;101079.00;5060723;28;20052;-81
2023/07/23 10:39:55;;;;;;;32.08;29.48;;;;;;;30.03;100.00;101073.91;5062929;28;20132;-80
2023/07/23 10:42:41;;;;;;;29.35;26.63;;;;;;;29.66;100.00;101084.50;5063830;28;20515;-81
2023/07/23 10:45:28;;;;;;;27.45;25.10;;;;;;;29.56;100.00;101081.28;5065742;28;20045;-81
2023/07/23 10:47:57;;;;;;;25.13;23.13;;;;;;;30.08;100.00;101070.19;5065142;28;20079;-81
2023/07/23 10:50:29;;;;;;;24.50;22.63;;;;;;;29.56;100.00;101075.78;5063406;28;20048;-80
2023/07/23 10:53:02;;;;;;;27.13;24.83;;;;;;;30.11;100.00;101075.81;5070641;28;20580;-80
2023/07/23 10:55:45;;;;;;;27.92;25.65;;;;;;;30.58;100.00;101074.91;5070975;28;20287;-78
2023/07/23 10:58:13;;;;;;;31.27;28.95;;;;;;;30.98;100.00;101069.78;5070308;28;20045;-79
2023/07/23 11:00:44;;;;;;;29.38;26.88;;;;;;;30.79;100.00;101074.97;5063089;28;20052;-80
2023/07/23 11:03:25;;;;;;;30.70;28.33;;;;;;;30.58;100.00;101072.19;5070787;28;20102;-80
2023/07/23 11:05:53;;;;;;;28.63;26.38;;;;;;;30.97;100.00;101073.69;5070738;28;20078;-81
2023/07/23 11:08:27;;;;;;;28.33;26.02;;;;;;;32.19;100.00;101058.66;5069386;28;20479;-81